Time;durP1;ratioP1;P1;durP2;ratioP2;P2;SDS_P1;SDS_P2;PMS_P1;PMS_P2;Temp;Humidity;BMP_temperature;BMP_pressure;BME280_temperature;BME280_humidity;BME280_pressure;Samples;Min_cycle;Max_cycle;Signal;HPM_P1;HPM_P2
2022/10/06 00:00:23;;;;;;;0.10;0.10;;;;;;;;;;5014242;28;20549;-77
2022/10/06 00:02:49;;;;;;;0.10;0.10;;;;;;;;;;5035167;28;20200;-78
2022/10/06 00:05:15;;;;;;;0.10;0.10;;;;;;;;;;5013980;28;20213;-76
2022/10/06 00:07:42;;;;;;;0.10;0.10;;;;;;;;;;5036365;28;20410;-78
2022/10/06 00:10:08;;;;;;;0.10;0.10;;;;;;;;;;5012966;28;20205;-76
2022/10/06 00:12:40;;;;;;;0.10;0.10;;;;;;;;;;5037105;28;20205;-78
2022/10/06 00:15:07;;;;;;;0.10;0.10;;;;;;;;;;5013843;28;20205;-77
2022/10/06 00:17:33;;;;;;;0.10;0.10;;;;;;;;;;5036934;28;20233;-78
2022/10/06 00:20:00;;;;;;;0.10;0.10;;;;;;;;;;5022708;28;20433;-78
2022/10/06 00:22:32;;;;;;;0.10;0.10;;;;;;;;;;5027408;28;20247;-77
2022/10/06 00:24:58;;;;;;;0.10;0.10;;;;;;;;;;5022527;28;20349;-77
2022/10/06 00:27:25;;;;;;;0.10;0.10;;;;;;;;;;5027309;28;20243;-77
2022/10/06 00:29:52;;;;;;;0.10;0.10;;;;;;;;;;5022563;28;20277;-77
2022/10/06 00:32:18;;;;;;;0.10;0.10;;;;;;;;;;5027368;28;20275;-77
2022/10/06 00:34:45;;;;;;;0.10;0.10;;;;;;;;;;5022469;28;20206;-76
2022/10/06 00:37:11;;;;;;;0.10;0.10;;;;;;;;;;5027061;28;20237;-77
2022/10/06 00:39:37;;;;;;;0.10;0.10;;;;;;;;;;5022398;28;20215;-77
2022/10/06 00:42:04;;;;;;;0.10;0.10;;;;;;;;;;5027050;28;20247;-77
2022/10/06 00:44:30;;;;;;;0.10;0.10;;;;;;;;;;5022476;28;20214;-77
2022/10/06 00:46:58;;;;;;;0.10;0.10;;;;;;;;;;5026183;28;20245;-78
2022/10/06 00:49:27;;;;;;;0.10;0.10;;;;;;;;;;5023365;28;20352;-78
2022/10/06 00:51:57;;;;;;;0.07;0.07;;;;;;;;;;5025625;28;20244;-77
2022/10/06 00:54:24;;;;;;;0.10;0.10;;;;;;;;;;5022865;28;20208;-77
2022/10/06 00:56:50;;;;;;;0.10;0.10;;;;;;;;;;5025050;28;20319;-77
2022/10/06 00:59:17;;;;;;;0.10;0.10;;;;;;;;;;5023995;28;20230;-78
2022/10/06 01:01:46;;;;;;;0.00;0.00;;;;;;;;;;5024105;28;20243;-78
2022/10/06 01:04:16;;;;;;;0.03;0.03;;;;;;;;;;5024409;28;20214;-77
2022/10/06 01:06:45;;;;;;;0.10;0.10;;;;;;;;;;5024218;28;20273;-77
2022/10/06 01:09:11;;;;;;;0.10;0.10;;;;;;;;;;5024432;28;20512;-77
2022/10/06 01:11:38;;;;;;;0.10;0.10;;;;;;;;;;5023592;28;20498;-77
2022/10/06 01:14:04;;;;;;;0.10;0.10;;;;;;;;;;5025639;28;20233;-78
2022/10/06 01:16:36;;;;;;;0.10;0.10;;;;;;;;;;5026083;28;20259;-77
2022/10/06 01:19:04;;;;;;;0.10;0.10;;;;;;;;;;5029133;28;20206;-77
2022/10/06 01:21:34;;;;;;;0.10;0.10;;;;;;;;;;5025982;28;20241;-77
2022/10/06 01:24:02;;;;;;;0.10;0.10;;;;;;;;;;5029204;28;20224;-77
2022/10/06 01:26:30;;;;;;;0.10;0.10;;;;;;;;;;5025805;28;20236;-77
2022/10/06 01:28:56;;;;;;;0.10;0.10;;;;;;;;;;5029755;28;20219;-77
2022/10/06 01:31:23;;;;;;;0.00;0.00;;;;;;;;;;5024746;28;20266;-77
2022/10/06 01:33:53;;;;;;;0.10;0.10;;;;;;;;;;5030496;28;20212;-76
2022/10/06 01:36:19;;;;;;;0.10;0.10;;;;;;;;;;5024255;28;20269;-77
2022/10/06 01:38:46;;;;;;;0.10;0.10;;;;;;;;;;5030615;28;20212;-77
2022/10/06 01:41:13;;;;;;;0.10;0.10;;;;;;;;;;5023211;28;20248;-76
2022/10/06 01:43:40;;;;;;;0.10;0.10;;;;;;;;;;5031358;28;20212;-76
2022/10/06 01:46:06;;;;;;;0.10;0.10;;;;;;;;;;5022279;28;20311;-77
2022/10/06 01:48:34;;;;;;;0.10;0.10;;;;;;;;;;5032315;28;20209;-77
2022/10/06 01:51:01;;;;;;;0.10;0.10;;;;;;;;;;5021484;28;20295;-77
2022/10/06 01:53:28;;;;;;;0.10;0.10;;;;;;;;;;5032593;28;20206;-77
2022/10/06 01:55:57;;;;;;;0.10;0.10;;;;;;;;;;5020746;28;20240;-78
2022/10/06 01:58:25;;;;;;;0.10;0.10;;;;;;;;;;5032682;28;20228;-77
2022/10/06 02:00:51;;;;;;;0.05;0.05;;;;;;;;;;5020406;28;20339;-77
2022/10/06 02:03:18;;;;;;;0.10;0.10;;;;;;;;;;5033925;28;20370;-77
2022/10/06 02:05:44;;;;;;;0.10;0.10;;;;;;;;;;5019187;28;20247;-77
2022/10/06 02:08:10;;;;;;;0.10;0.10;;;;;;;;;;5034719;28;20563;-77
2022/10/06 02:10:37;;;;;;;0.00;0.00;;;;;;;;;;5018336;28;20251;-76
2022/10/06 02:13:03;;;;;;;0.03;0.03;;;;;;;;;;5035290;28;20197;-76
2022/10/06 02:15:32;;;;;;;0.10;0.10;;;;;;;;;;5017469;28;20560;-76
2022/10/06 02:17:58;;;;;;;0.10;0.10;;;;;;;;;;5036170;28;20217;-77
2022/10/06 02:20:25;;;;;;;0.08;0.08;;;;;;;;;;5016749;28;20250;-78
2022/10/06 02:22:51;;;;;;;0.10;0.10;;;;;;;;;;5036810;28;20383;-77
2022/10/06 02:25:17;;;;;;;0.00;0.00;;;;;;;;;;5015119;28;20217;-77
2022/10/06 02:27:43;;;;;;;0.10;0.10;;;;;;;;;;5037366;28;20212;-76
2022/10/06 02:30:10;;;;;;;0.10;0.10;;;;;;;;;;5014927;28;20208;-76
2022/10/06 02:32:39;;;;;;;0.10;0.10;;;;;;;;;;5038588;28;20402;-76
2022/10/06 02:35:05;;;;;;;0.10;0.10;;;;;;;;;;5017380;28;20210;-76
2022/10/06 02:37:32;;;;;;;0.10;0.10;;;;;;;;;;5038575;28;20229;-77
2022/10/06 02:39:58;;;;;;;0.10;0.10;;;;;;;;;;5024168;28;20283;-77
2022/10/06 02:42:25;;;;;;;0.10;0.10;;;;;;;;;;5028819;28;20362;-77
2022/10/06 02:44:51;;;;;;;0.10;0.10;;;;;;;;;;5024031;28;20205;-78
2022/10/06 02:47:17;;;;;;;0.10;0.10;;;;;;;;;;5028759;28;20254;-76
2022/10/06 02:49:45;;;;;;;0.10;0.10;;;;;;;;;;5024069;28;20210;-77
2022/10/06 02:52:11;;;;;;;0.10;0.10;;;;;;;;;;5028884;28;20240;-78
2022/10/06 02:54:38;;;;;;;0.10;0.10;;;;;;;;;;5023902;28;20214;-75
2022/10/06 02:57:04;;;;;;;0.10;0.10;;;;;;;;;;5028509;28;20270;-77
2022/10/06 02:59:30;;;;;;;0.05;0.05;;;;;;;;;;5023860;28;20473;-77
2022/10/06 03:01:56;;;;;;;0.00;0.00;;;;;;;;;;5027540;28;20251;-77
2022/10/06 03:04:23;;;;;;;0.10;0.10;;;;;;;;;;5024591;28;20491;-76
2022/10/06 03:06:50;;;;;;;0.10;0.10;;;;;;;;;;5026651;28;20310;-77
2022/10/06 03:09:17;;;;;;;0.10;0.10;;;;;;;;;;5025316;28;20246;-77
2022/10/06 03:11:44;;;;;;;0.10;0.10;;;;;;;;;;5025525;28;20248;-75
2022/10/06 03:14:10;;;;;;;0.10;0.10;;;;;;;;;;5026086;28;20208;-76
2022/10/06 03:16:38;;;;;;;0.10;0.10;;;;;;;;;;5024574;28;20240;-75
2022/10/06 03:19:05;;;;;;;0.10;0.10;;;;;;;;;;5026481;28;20243;-78
2022/10/06 03:21:32;;;;;;;0.10;0.10;;;;;;;;;;5024001;28;20252;-77
2022/10/06 03:24:00;;;;;;;0.00;0.00;;;;;;;;;;5027314;28;20210;-77
2022/10/06 03:26:27;;;;;;;0.05;0.05;;;;;;;;;;5023372;28;20240;-76
2022/10/06 03:28:54;;;;;;;0.10;0.10;;;;;;;;;;5027511;28;20205;-78
2022/10/06 03:31:20;;;;;;;0.10;0.10;;;;;;;;;;5022298;28;20304;-77
2022/10/06 03:33:47;;;;;;;0.10;0.10;;;;;;;;;;5028619;28;20275;-77
2022/10/06 03:36:14;;;;;;;0.00;0.00;;;;;;;;;;5021469;28;20244;-76
2022/10/06 03:38:41;;;;;;;0.10;0.10;;;;;;;;;;5028706;28;20249;-77
2022/10/06 03:41:10;;;;;;;0.10;0.10;;;;;;;;;;5020673;28;20244;-77
2022/10/06 03:43:37;;;;;;;0.00;0.00;;;;;;;;;;5029956;28;20355;-77
2022/10/06 03:46:04;;;;;;;0.10;0.10;;;;;;;;;;5019855;28;20366;-78
2022/10/06 03:48:32;;;;;;;0.10;0.10;;;;;;;;;;5030540;28;20563;-77
2022/10/06 03:50:59;;;;;;;0.10;0.10;;;;;;;;;;5019434;28;20473;-77
2022/10/06 03:53:27;;;;;;;0.10;0.10;;;;;;;;;;5030576;28;20213;-77
2022/10/06 03:55:59;;;;;;;0.00;0.00;;;;;;;;;;5017972;28;20266;-78
2022/10/06 03:58:27;;;;;;;0.10;0.10;;;;;;;;;;5031082;28;20235;-78
2022/10/06 04:00:58;;;;;;;0.10;0.10;;;;;;;;;;5017828;28;20255;-77
2022/10/06 04:03:24;;;;;;;0.00;0.00;;;;;;;;;;5031432;28;20206;-77
2022/10/06 04:05:54;;;;;;;0.10;0.10;;;;;;;;;;5018079;28;20506;-77
2022/10/06 04:08:21;;;;;;;0.00;0.00;;;;;;;;;;5031315;28;20267;-77
2022/10/06 04:10:48;;;;;;;0.10;0.10;;;;;;;;;;5017749;28;20443;-76
2022/10/06 04:13:15;;;;;;;0.45;0.45;;;;;;;;;;5032245;28;20489;-78
2022/10/06 04:15:43;;;;;;;0.10;0.10;;;;;;;;;;5016865;28;20239;-76
2022/10/06 04:18:09;;;;;;;0.10;0.10;;;;;;;;;;5032771;28;20229;-77
2022/10/06 04:20:35;;;;;;;0.00;0.00;;;;;;;;;;5016054;28;20248;-78
2022/10/06 04:23:02;;;;;;;0.10;0.10;;;;;;;;;;5033482;28;20198;-78
2022/10/06 04:25:28;;;;;;;0.10;0.10;;;;;;;;;;5015234;28;20311;-71
2022/10/06 04:27:56;;;;;;;0.10;0.10;;;;;;;;;;5034387;28;20232;-72
2022/10/06 04:30:22;;;;;;;0.10;0.10;;;;;;;;;;5014253;28;20272;-71
2022/10/06 04:32:50;;;;;;;0.10;0.10;;;;;;;;;;5035393;28;20197;-71
2022/10/06 04:35:16;;;;;;;0.10;0.10;;;;;;;;;;5014011;28;20253;-71
2022/10/06 04:37:42;;;;;;;0.10;0.10;;;;;;;;;;5035745;28;20239;-70
2022/10/06 04:40:09;;;;;;;0.10;0.10;;;;;;;;;;5012848;28;20213;-71
2022/10/06 04:42:36;;;;;;;0.10;0.10;;;;;;;;;;5036887;28;20381;-70
2022/10/06 04:45:02;;;;;;;0.10;0.10;;;;;;;;;;5022469;28;20281;-71
2022/10/06 04:47:28;;;;;;;0.10;0.10;;;;;;;;;;5027228;28;20251;-71
2022/10/06 04:49:56;;;;;;;0.10;0.10;;;;;;;;;;5025595;28;20205;-71
2022/10/06 04:52:22;;;;;;;0.10;0.10;;;;;;;;;;5030858;28;20433;-69
2022/10/06 04:54:49;;;;;;;0.00;0.00;;;;;;;;;;5026144;28;20321;-71
2022/10/06 04:57:15;;;;;;;0.08;0.08;;;;;;;;;;5030794;28;20494;-71
2022/10/06 05:02:26;;;;;;;0.10;0.10;;;;;;;;;;5030825;28;20249;-71
2022/10/06 05:04:52;;;;;;;0.00;0.00;;;;;;;;;;5025848;28;20250;-72
2022/10/06 05:07:20;;;;;;;0.10;0.10;;;;;;;;;;5030598;28;20262;-71
2022/10/06 05:09:46;;;;;;;0.10;0.10;;;;;;;;;;5025215;28;20219;-71
2022/10/06 05:12:12;;;;;;;0.00;0.00;;;;;;;;;;5030612;28;20244;-71
2022/10/06 05:14:39;;;;;;;0.10;0.10;;;;;;;;;;5025712;28;20284;-72
2022/10/06 05:17:05;;;;;;;0.10;0.10;;;;;;;;;;5030073;28;20311;-70
2022/10/06 05:19:31;;;;;;;0.10;0.10;;;;;;;;;;5025638;28;20219;-69
2022/10/06 05:21:57;;;;;;;0.10;0.10;;;;;;;;;;5029334;28;20243;-69
2022/10/06 05:24:25;;;;;;;0.00;0.00;;;;;;;;;;5025811;28;20208;-71
2022/10/06 05:26:52;;;;;;;0.00;0.00;;;;;;;;;;5028585;28;20242;-70
2022/10/06 05:29:18;;;;;;;0.10;0.10;;;;;;;;;;5026662;28;20441;-71
2022/10/06 05:31:45;;;;;;;0.10;0.10;;;;;;;;;;5027068;28;20240;-71
2022/10/06 05:34:11;;;;;;;0.10;0.10;;;;;;;;;;5027358;28;20208;-71
2022/10/06 05:36:38;;;;;;;0.07;0.07;;;;;;;;;;5026412;28;20244;-71
2022/10/06 05:39:04;;;;;;;0.03;0.03;;;;;;;;;;5028366;28;20513;-71
2022/10/06 05:41:33;;;;;;;0.00;0.00;;;;;;;;;;5025713;28;20288;-70
2022/10/06 05:43:59;;;;;;;0.10;0.10;;;;;;;;;;5028949;28;20281;-71
2022/10/06 05:46:27;;;;;;;0.10;0.10;;;;;;;;;;5024942;28;20571;-71
2022/10/06 05:48:54;;;;;;;0.10;0.10;;;;;;;;;;5029354;28;20201;-71
2022/10/06 05:51:21;;;;;;;0.10;0.10;;;;;;;;;;5024195;28;20433;-71
2022/10/06 05:53:48;;;;;;;0.10;0.10;;;;;;;;;;5030400;28;20206;-70
2022/10/06 05:56:15;;;;;;;0.00;0.00;;;;;;;;;;5023311;28;20240;-71
2022/10/06 05:58:44;;;;;;;0.10;0.10;;;;;;;;;;5030870;28;20280;-78
2022/10/06 06:01:11;;;;;;;0.10;0.10;;;;;;;;;;5021605;28;20455;-78
2022/10/06 06:03:37;;;;;;;0.10;0.10;;;;;;;;;;5031545;28;20208;-77
2022/10/06 06:06:04;;;;;;;0.10;0.10;;;;;;;;;;5021628;28;20364;-76
2022/10/06 06:08:30;;;;;;;0.10;0.10;;;;;;;;;;5032350;28;20204;-77
2022/10/06 06:11:04;;;;;;;0.10;0.10;;;;;;;;;;5021015;28;20254;-78
2022/10/06 06:13:30;;;;;;;0.10;0.10;;;;;;;;;;5032094;28;20207;-78
2022/10/06 06:15:59;;;;;;;0.10;0.10;;;;;;;;;;5020915;28;20288;-78
2022/10/06 06:18:25;;;;;;;0.10;0.10;;;;;;;;;;5032752;28;20279;-78
2022/10/06 06:20:55;;;;;;;0.00;0.00;;;;;;;;;;5020100;28;20241;-77
2022/10/06 06:23:21;;;;;;;0.10;0.10;;;;;;;;;;5033200;28;20214;-78
2022/10/06 06:25:55;;;;;;;0.10;0.10;;;;;;;;;;5019648;28;20239;-77
2022/10/06 06:28:22;;;;;;;0.10;0.10;;;;;;;;;;5032756;28;20206;-78
2022/10/06 06:30:48;;;;;;;0.10;0.10;;;;;;;;;;5019743;28;20272;-77
2022/10/06 06:33:16;;;;;;;0.10;0.10;;;;;;;;;;5033933;28;20206;-77
2022/10/06 06:35:42;;;;;;;0.03;0.03;;;;;;;;;;5018626;28;20428;-76
2022/10/06 06:38:10;;;;;;;0.00;0.00;;;;;;;;;;5033993;28;20226;-78
2022/10/06 06:40:39;;;;;;;0.10;0.10;;;;;;;;;;5017723;28;20272;-77
2022/10/06 06:43:05;;;;;;;0.10;0.10;;;;;;;;;;5034728;28;20222;-77
2022/10/06 06:45:32;;;;;;;0.10;0.10;;;;;;;;;;5017262;28;20241;-77
2022/10/06 06:47:58;;;;;;;0.10;0.10;;;;;;;;;;5035566;28;20189;-79
2022/10/06 06:50:26;;;;;;;0.10;0.10;;;;;;;;;;5016343;28;20295;-79
2022/10/06 06:52:53;;;;;;;0.10;0.10;;;;;;;;;;5036281;28;20215;-77
2022/10/06 06:55:20;;;;;;;0.07;0.07;;;;;;;;;;5015476;28;20209;-77
2022/10/06 06:57:48;;;;;;;0.10;0.10;;;;;;;;;;5036921;28;20364;-78
2022/10/06 07:00:15;;;;;;;0.10;0.10;;;;;;;;;;5014839;28;20231;-78
2022/10/06 07:02:41;;;;;;;0.10;0.10;;;;;;;;;;5037155;28;20249;-77
2022/10/06 07:05:08;;;;;;;0.10;0.10;;;;;;;;;;5014007;28;20209;-77
2022/10/06 07:07:36;;;;;;;0.10;0.10;;;;;;;;;;5038275;28;20379;-77
2022/10/06 07:10:05;;;;;;;0.00;0.00;;;;;;;;;;5023757;28;20213;-78
2022/10/06 07:12:31;;;;;;;0.03;0.03;;;;;;;;;;4991466;28;20202;-78
2022/10/06 07:25:58;;;;;;;0.10;0.10;;;;;;;;;;5000340;28;20350;-78
2022/10/06 07:28:25;;;;;;;0.10;0.10;;;;;;;;;;5011271;28;20212;-78
2022/10/06 07:30:51;;;;;;;0.07;0.07;;;;;;;;;;4999370;28;20312;-78
2022/10/06 07:33:18;;;;;;;0.10;0.10;;;;;;;;;;5012599;28;20212;-78
2022/10/06 07:35:44;;;;;;;0.07;0.07;;;;;;;;;;4998355;28;20543;-78
2022/10/06 07:38:12;;;;;;;0.10;0.10;;;;;;;;;;5013017;28;20545;-79
2022/10/06 07:40:38;;;;;;;0.10;0.10;;;;;;;;;;4997238;28;20256;-77
2022/10/06 07:43:06;;;;;;;0.10;0.10;;;;;;;;;;5013566;28;20556;-78
2022/10/06 07:45:38;;;;;;;0.10;0.10;;;;;;;;;;4996742;28;20241;-78
2022/10/06 07:48:05;;;;;;;0.10;0.10;;;;;;;;;;5014096;28;20432;-78
2022/10/06 07:50:39;;;;;;;0.10;0.10;;;;;;;;;;4996762;28;20398;-78
2022/10/06 07:53:07;;;;;;;0.10;0.10;;;;;;;;;;5013779;28;20241;-77
2022/10/06 07:55:36;;;;;;;0.10;0.10;;;;;;;;;;4996919;28;20312;-77
2022/10/06 07:58:02;;;;;;;0.00;0.00;;;;;;;;;;5014204;28;20206;-78
2022/10/06 08:00:28;;;;;;;0.10;0.10;;;;;;;;;;4996201;28;20484;-78
2022/10/06 08:02:58;;;;;;;0.10;0.10;;;;;;;;;;5014950;28;20215;-78
2022/10/06 08:05:24;;;;;;;0.10;0.10;;;;;;;;;;4995779;28;22454;-78
2022/10/06 08:07:52;;;;;;;0.00;0.00;;;;;;;;;;5015587;28;20194;-77
2022/10/06 08:10:19;;;;;;;0.10;0.10;;;;;;;;;;4995107;28;20221;-78
2022/10/06 08:12:47;;;;;;;0.10;0.10;;;;;;;;;;5016399;28;20266;-78
2022/10/06 08:15:13;;;;;;;0.10;0.10;;;;;;;;;;4994632;28;20213;-77
2022/10/06 08:17:40;;;;;;;0.03;0.03;;;;;;;;;;5016995;28;20222;-78
2022/10/06 08:20:08;;;;;;;0.10;0.10;;;;;;;;;;4996961;28;20556;-76
2022/10/06 08:22:35;;;;;;;0.00;0.00;;;;;;;;;;5017812;28;20363;-77
2022/10/06 08:25:01;;;;;;;0.10;0.10;;;;;;;;;;5006699;28;20210;-78
2022/10/06 08:27:28;;;;;;;0.10;0.10;;;;;;;;;;5011908;28;20241;-78
2022/10/06 08:29:56;;;;;;;0.10;0.10;;;;;;;;;;5007046;28;20226;-77
2022/10/06 08:32:23;;;;;;;0.10;0.10;;;;;;;;;;5012150;28;20318;-78
2022/10/06 08:34:50;;;;;;;0.10;0.10;;;;;;;;;;5007076;28;20198;-78
2022/10/06 08:37:22;;;;;;;0.10;0.10;;;;;;;;;;5011938;28;20599;-78
2022/10/06 08:39:49;;;;;;;0.10;0.10;;;;;;;;;;5006968;28;20227;-77
2022/10/06 08:42:18;;;;;;;0.10;0.10;;;;;;;;;;5011757;28;20243;-77
2022/10/06 08:44:46;;;;;;;0.10;0.10;;;;;;;;;;5006974;28;20210;-77
2022/10/06 08:47:16;;;;;;;0.08;0.08;;;;;;;;;;5011961;28;20242;-78
2022/10/06 08:49:44;;;;;;;0.10;0.10;;;;;;;;;;5006713;28;20239;-77
2022/10/06 08:52:17;;;;;;;0.00;0.00;;;;;;;;;;5011503;28;20531;-78
2022/10/06 08:54:46;;;;;;;0.10;0.10;;;;;;;;;;5006482;28;20283;-77
2022/10/06 08:57:17;;;;;;;0.03;0.03;;;;;;;;;;5011317;28;20243;-79
2022/10/06 08:59:46;;;;;;;0.10;0.10;;;;;;;;;;5005756;28;20244;-78
2022/10/06 09:02:19;;;;;;;0.10;0.10;;;;;;;;;;5011306;28;20576;-78
2022/10/06 09:04:48;;;;;;;0.10;0.10;;;;;;;;;;5006212;28;20217;-78
2022/10/06 09:07:16;;;;;;;0.10;0.10;;;;;;;;;;5011177;28;20269;-78
2022/10/06 09:09:56;;;;;;;0.08;0.08;;;;;;;;;;5006098;28;20263;-78
2022/10/06 09:12:27;;;;;;;0.10;0.10;;;;;;;;;;5011032;28;20243;-78
2022/10/06 09:14:56;;;;;;;0.10;0.10;;;;;;;;;;5006341;28;20241;-79
2022/10/06 09:17:26;;;;;;;0.00;0.00;;;;;;;;;;5011088;28;20242;-78
2022/10/06 09:19:56;;;;;;;0.10;0.10;;;;;;;;;;5005865;28;20235;-76
2022/10/06 09:22:23;;;;;;;0.10;0.10;;;;;;;;;;5010860;28;20285;-79
2022/10/06 09:24:53;;;;;;;0.00;0.00;;;;;;;;;;5005446;28;20205;-77
2022/10/06 09:27:21;;;;;;;0.10;0.10;;;;;;;;;;5010911;28;20242;-78
2022/10/06 09:29:48;;;;;;;0.10;0.10;;;;;;;;;;5005877;28;20254;-78
2022/10/06 09:32:15;;;;;;;0.10;0.10;;;;;;;;;;5010768;28;20257;-77
2022/10/06 09:34:46;;;;;;;0.00;0.00;;;;;;;;;;5004906;28;20277;-78
2022/10/06 09:37:13;;;;;;;0.10;0.10;;;;;;;;;;5010198;28;20570;-79
2022/10/06 09:39:41;;;;;;;0.10;0.10;;;;;;;;;;5005378;28;20261;-77
2022/10/06 09:42:11;;;;;;;0.10;0.10;;;;;;;;;;5010245;28;20316;-79
2022/10/06 09:44:45;;;;;;;0.00;0.00;;;;;;;;;;5005356;28;20237;-77
2022/10/06 09:47:27;;;;;;;0.10;0.10;;;;;;;;;;5010154;28;20302;-78
2022/10/06 09:50:03;;;;;;;0.10;0.10;;;;;;;;;;4996343;28;20208;-76
2022/10/06 09:52:30;;;;;;;0.10;0.10;;;;;;;;;;5010310;28;20244;-78
2022/10/06 09:55:02;;;;;;;0.00;0.00;;;;;;;;;;5005434;28;20448;-78
2022/10/06 09:57:30;;;;;;;0.03;0.03;;;;;;;;;;5010373;28;20243;-77
2022/10/06 09:59:57;;;;;;;0.00;0.00;;;;;;;;;;5005160;28;20425;-79
2022/10/06 10:02:35;;;;;;;0.10;0.10;;;;;;;;;;5010095;28;20262;-79
2022/10/06 10:05:05;;;;;;;0.03;0.03;;;;;;;;;;5005328;28;20497;-77
2022/10/06 10:07:33;;;;;;;0.00;0.00;;;;;;;;;;4993399;28;20214;-79
2022/10/06 10:10:14;;;;;;;0.00;0.00;;;;;;;;;;5005049;28;20206;-78
2022/10/06 10:12:48;;;;;;;0.10;0.10;;;;;;;;;;5003430;28;20193;-78
2022/10/06 10:15:24;;;;;;;0.00;0.00;;;;;;;;;;4997588;28;20312;-78
2022/10/06 10:17:51;;;;;;;0.05;0.05;;;;;;;;;;5037427;28;20196;-77
2022/10/06 10:20:30;;;;;;;0.00;0.00;;;;;;;;;;5015751;28;20323;-77
2022/10/06 10:22:58;;;;;;;0.00;0.00;;;;;;;;;;5036029;28;20239;-78
2022/10/06 10:25:36;;;;;;;0.10;0.10;;;;;;;;;;5015661;28;20262;-77
2022/10/06 10:28:07;;;;;;;0.10;0.10;;;;;;;;;;5035515;28;20207;-78
2022/10/06 10:30:39;;;;;;;0.10;0.10;;;;;;;;;;5017300;28;20550;-78
2022/10/06 10:33:09;;;;;;;0.10;0.10;;;;;;;;;;5035029;28;20217;-77
2022/10/06 10:35:39;;;;;;;0.10;0.10;;;;;;;;;;5017256;28;20340;-77
2022/10/06 10:38:07;;;;;;;0.10;0.10;;;;;;;;;;5034630;28;20449;-77
2022/10/06 10:40:35;;;;;;;0.10;0.10;;;;;;;;;;5017049;28;20248;-78
2022/10/06 10:43:19;;;;;;;0.10;0.10;;;;;;;;;;5034861;28;20190;-79
2022/10/06 10:45:47;;;;;;;0.10;0.10;;;;;;;;;;5017901;28;20268;-78
2022/10/06 10:48:16;;;;;;;0.10;0.10;;;;;;;;;;5033502;28;20213;-78
2022/10/06 10:50:47;;;;;;;0.05;0.05;;;;;;;;;;5018083;28;20247;-77
2022/10/06 10:53:18;;;;;;;0.00;0.00;;;;;;;;;;5033378;28;20196;-78
2022/10/06 10:55:45;;;;;;;0.10;0.10;;;;;;;;;;5018334;28;20242;-78
2022/10/06 10:58:14;;;;;;;0.00;0.00;;;;;;;;;;5033288;28;20281;-78
2022/10/06 11:00:42;;;;;;;0.00;0.00;;;;;;;;;;5017432;28;20242;-78
2022/10/06 11:03:09;;;;;;;0.08;0.08;;;;;;;;;;5033947;28;20202;-78
2022/10/06 11:05:45;;;;;;;0.00;0.00;;;;;;;;;;5016676;28;20249;-77
2022/10/06 11:08:18;;;;;;;0.00;0.00;;;;;;;;;;5033294;28;20237;-79
2022/10/06 11:10:47;;;;;;;0.03;0.03;;;;;;;;;;5018091;28;20522;-77
2022/10/06 11:13:16;;;;;;;0.10;0.10;;;;;;;;;;5032823;28;20555;-76
2022/10/06 11:15:51;;;;;;;0.00;0.00;;;;;;;;;;5017645;28;20315;-78
2022/10/06 11:18:24;;;;;;;0.00;0.00;;;;;;;;;;5032312;28;20211;-77
2022/10/06 11:20:53;;;;;;;0.00;0.00;;;;;;;;;;5018377;28;20243;-77
2022/10/06 11:23:31;;;;;;;0.10;0.10;;;;;;;;;;5031873;28;20210;-77
2022/10/06 11:26:04;;;;;;;0.00;0.00;;;;;;;;;;5019246;28;20629;-78
2022/10/06 11:28:36;;;;;;;0.00;0.00;;;;;;;;;;5030688;28;20233;-78
2022/10/06 11:31:05;;;;;;;0.10;0.10;;;;;;;;;;5019761;28;20241;-78
2022/10/06 11:33:34;;;;;;;0.00;0.00;;;;;;;;;;5030326;28;20367;-77
2022/10/06 11:36:02;;;;;;;0.00;0.00;;;;;;;;;;5019558;28;20287;-77
2022/10/06 11:38:33;;;;;;;0.00;0.00;;;;;;;;;;5030822;28;20236;-78
2022/10/06 11:41:06;;;;;;;0.00;0.00;;;;;;;;;;5019393;28;20296;-78
2022/10/06 11:43:35;;;;;;;0.00;0.00;;;;;;;;;;5030198;28;20266;-77
2022/10/06 11:46:07;;;;;;;0.10;0.10;;;;;;;;;;5019488;28;20313;-78
2022/10/06 11:48:33;;;;;;;0.00;0.00;;;;;;;;;;5029913;28;20204;-78
2022/10/06 11:51:14;;;;;;;0.00;0.00;;;;;;;;;;5019193;28;20485;-78
2022/10/06 11:53:43;;;;;;;0.00;0.00;;;;;;;;;;5028024;28;20197;-77
2022/10/06 11:56:42;;;;;;;0.00;0.00;;;;;;;;;;5020270;28;20242;-78
2022/10/06 11:59:13;;;;;;;0.00;0.00;;;;;;;;;;5024570;28;20458;-77
2022/10/06 12:01:50;;;;;;;0.10;0.10;;;;;;;;;;5023862;28;20242;-77
2022/10/06 12:04:16;;;;;;;0.00;0.00;;;;;;;;;;5024680;28;20494;-78
2022/10/06 12:06:58;;;;;;;0.00;0.00;;;;;;;;;;5024455;28;20248;-78
2022/10/06 12:09:39;;;;;;;0.10;0.10;;;;;;;;;;5023593;28;20215;-78
2022/10/06 12:12:20;;;;;;;0.10;0.10;;;;;;;;;;5024836;28;20273;-78
2022/10/06 12:14:53;;;;;;;0.00;0.00;;;;;;;;;;5022163;28;20303;-78
2022/10/06 12:17:23;;;;;;;0.00;0.00;;;;;;;;;;5027122;28;20581;-77
2022/10/06 12:19:54;;;;;;;0.10;0.10;;;;;;;;;;5022162;28;20227;-78
2022/10/06 12:22:23;;;;;;;0.00;0.00;;;;;;;;;;5027549;28;20265;-78
2022/10/06 12:24:52;;;;;;;0.00;0.00;;;;;;;;;;5022185;28;20206;-77
2022/10/06 12:27:27;;;;;;;0.08;0.08;;;;;;;;;;5027179;28;20491;-77
2022/10/06 12:29:58;;;;;;;0.00;0.00;;;;;;;;;;5022673;28;20210;-77
2022/10/06 12:32:31;;;;;;;0.00;0.00;;;;;;;;;;5027386;28;20531;-78
2022/10/06 12:35:01;;;;;;;0.03;0.03;;;;;;;;;;5022126;28;20205;-76
2022/10/06 12:37:40;;;;;;;0.00;0.00;;;;;;;;;;5027102;28;20529;-77
2022/10/06 12:40:24;;;;;;;0.00;0.00;;;;;;;;;;5012245;28;20226;-76
2022/10/06 12:42:53;;;;;;;0.00;0.00;;;;;;;;;;5035192;28;20279;-78
2022/10/06 12:45:22;;;;;;;0.05;0.05;;;;;;;;;;5013646;28;20236;-77
2022/10/06 12:47:48;;;;;;;0.00;0.00;;;;;;;;;;5035299;28;20301;-78
2022/10/06 12:50:17;;;;;;;0.10;0.10;;;;;;;;;;5013108;28;21240;-78
2022/10/06 12:52:46;;;;;;;0.00;0.00;;;;;;;;;;5035615;28;20333;-77
2022/10/06 12:55:21;;;;;;;0.10;0.10;;;;;;;;;;5013028;28;20284;-77
2022/10/06 12:57:47;;;;;;;0.10;0.10;;;;;;;;;;5035059;28;20207;-77
2022/10/06 13:00:30;;;;;;;0.00;0.00;;;;;;;;;;5012605;28;20236;-77
2022/10/06 13:02:57;;;;;;;0.10;0.10;;;;;;;;;;5033772;28;20210;-78
2022/10/06 13:05:24;;;;;;;0.00;0.00;;;;;;;;;;5014019;28;20257;-79
2022/10/06 13:07:57;;;;;;;0.00;0.00;;;;;;;;;;5034435;28;20218;-76
2022/10/06 13:10:24;;;;;;;0.00;0.00;;;;;;;;;;5016375;28;20223;-77
2022/10/06 13:12:51;;;;;;;0.00;0.00;;;;;;;;;;5038505;28;20203;-76
2022/10/06 13:15:19;;;;;;;0.10;0.10;;;;;;;;;;5016835;28;20208;-77
2022/10/06 13:17:48;;;;;;;0.08;0.08;;;;;;;;;;5039210;28;20263;-78
2022/10/06 13:20:21;;;;;;;0.00;0.00;;;;;;;;;;5016362;28;20239;-77
2022/10/06 13:22:54;;;;;;;0.03;0.03;;;;;;;;;;5038673;28;20284;-77
2022/10/06 13:25:21;;;;;;;0.10;0.10;;;;;;;;;;5017326;28;20276;-78
2022/10/06 13:27:51;;;;;;;0.08;0.08;;;;;;;;;;5038405;28;20430;-77
2022/10/06 13:30:18;;;;;;;0.03;0.03;;;;;;;;;;5016489;28;20221;-78
2022/10/06 13:32:45;;;;;;;0.00;0.00;;;;;;;;;;5039206;28;20414;-74
2022/10/06 13:35:13;;;;;;;0.00;0.00;;;;;;;;;;5017570;28;20313;-74
2022/10/06 13:37:39;;;;;;;0.05;0.05;;;;;;;;;;5040748;28;20263;-74
2022/10/06 13:40:13;;;;;;;0.00;0.00;;;;;;;;;;5019827;28;20263;-73
2022/10/06 13:42:40;;;;;;;0.08;0.08;;;;;;;;;;5026464;28;20270;-74
2022/10/06 13:45:13;;;;;;;0.00;0.00;;;;;;;;;;5015487;28;20596;-73
2022/10/06 13:47:39;;;;;;;0.10;0.10;;;;;;;;;;5039683;28;20442;-74
2022/10/06 13:50:07;;;;;;;0.00;0.00;;;;;;;;;;5018788;28;20243;-74
2022/10/06 13:52:36;;;;;;;0.05;0.05;;;;;;;;;;5040028;28;20273;-75
2022/10/06 13:55:03;;;;;;;0.00;0.00;;;;;;;;;;5025081;28;20221;-75
2022/10/06 13:57:43;;;;;;;0.00;0.00;;;;;;;;;;5030259;28;20263;-75
2022/10/06 14:00:16;;;;;;;0.00;0.00;;;;;;;;;;5015090;28;20237;-74
2022/10/06 14:02:43;;;;;;;0.00;0.00;;;;;;;;;;5039124;28;20223;-75
2022/10/06 14:05:30;;;;;;;0.03;0.03;;;;;;;;;;5015968;28;20464;-74
2022/10/06 14:07:58;;;;;;;0.10;0.10;;;;;;;;;;5037701;28;20239;-74
2022/10/06 14:10:29;;;;;;;0.00;0.00;;;;;;;;;;5017676;28;20894;-74
2022/10/06 14:12:57;;;;;;;0.00;0.00;;;;;;;;;;5037107;28;20206;-74
2022/10/06 14:15:25;;;;;;;0.10;0.10;;;;;;;;;;5016695;28;20208;-74
2022/10/06 14:17:53;;;;;;;0.10;0.10;;;;;;;;;;5037232;28;20209;-73
2022/10/06 14:20:44;;;;;;;0.10;0.10;;;;;;;;;;5016584;28;20229;-75
2022/10/06 14:23:29;;;;;;;0.10;0.10;;;;;;;;;;5035671;28;20553;-75
2022/10/06 14:25:57;;;;;;;0.00;0.00;;;;;;;;;;5021456;28;20267;-75
2022/10/06 14:28:24;;;;;;;0.08;0.08;;;;;;;;;;5034462;28;20216;-75
2022/10/06 14:30:50;;;;;;;0.00;0.00;;;;;;;;;;5020417;28;20302;-75
2022/10/06 14:33:17;;;;;;;0.05;0.05;;;;;;;;;;5034701;28;20435;-74
2022/10/06 14:35:44;;;;;;;0.00;0.00;;;;;;;;;;5019497;28;20336;-74
2022/10/06 14:38:11;;;;;;;0.00;0.00;;;;;;;;;;5034858;28;20217;-75
2022/10/06 14:40:45;;;;;;;0.10;0.10;;;;;;;;;;5019894;28;20601;-74
2022/10/06 14:43:12;;;;;;;0.10;0.10;;;;;;;;;;5035176;28;20207;-74
2022/10/06 14:45:42;;;;;;;0.10;0.10;;;;;;;;;;5018464;28;20255;-74
2022/10/06 14:48:09;;;;;;;0.08;0.08;;;;;;;;;;5035005;28;20507;-74
2022/10/06 14:50:35;;;;;;;0.00;0.00;;;;;;;;;;5019087;28;20376;-74
2022/10/06 14:53:02;;;;;;;0.00;0.00;;;;;;;;;;5035504;28;20215;-74
2022/10/06 14:55:29;;;;;;;0.03;0.03;;;;;;;;;;5016986;28;20242;-74
2022/10/06 14:57:55;;;;;;;0.03;0.03;;;;;;;;;;5037221;28;20375;-74
2022/10/06 15:00:23;;;;;;;0.10;0.10;;;;;;;;;;5015978;28;20306;-74
2022/10/06 15:02:50;;;;;;;0.10;0.10;;;;;;;;;;5037552;28;20234;-74
2022/10/06 15:05:16;;;;;;;0.00;0.00;;;;;;;;;;5015481;28;20313;-75